sensor_id;sensor_type;location;lat;lon;timestamp;P1;durP1;ratioP1;P2;durP2;ratioP2
28427;SDS011;15662;49.128;8.520;2023-02-17T00:01:30;7.47;;;4.47;;
28427;SDS011;15662;49.128;8.520;2023-02-17T00:03:59;6.25;;;4.57;;
28427;SDS011;15662;49.128;8.520;2023-02-17T00:06:28;4.50;;;4.10;;
28427;SDS011;15662;49.128;8.520;2023-02-17T00:08:57;7.05;;;4.32;;
28427;SDS011;15662;49.128;8.520;2023-02-17T00:11:26;5.43;;;4.10;;
28427;SDS011;15662;49.128;8.520;2023-02-17T00:13:57;5.38;;;4.07;;
28427;SDS011;15662;49.128;8.520;2023-02-17T00:16:26;5.43;;;4.38;;
28427;SDS011;15662;49.128;8.520;2023-02-17T00:18:56;5.25;;;4.18;;
28427;SDS011;15662;49.128;8.520;2023-02-17T00:21:27;7.20;;;4.35;;
28427;SDS011;15662;49.128;8.520;2023-02-17T00:23:57;4.90;;;4.20;;
28427;SDS011;15662;49.128;8.520;2023-02-17T00:28:56;4.80;;;3.50;;
28427;SDS011;15662;49.128;8.520;2023-02-17T00:31:25;5.53;;;3.80;;
28427;SDS011;15662;49.128;8.520;2023-02-17T00:33:53;6.47;;;4.03;;
28427;SDS011;15662;49.128;8.520;2023-02-17T00:36:22;4.97;;;3.95;;
28427;SDS011;15662;49.128;8.520;2023-02-17T00:38:52;7.72;;;3.97;;
28427;SDS011;15662;49.128;8.520;2023-02-17T00:41:22;5.10;;;4.28;;
28427;SDS011;15662;49.128;8.520;2023-02-17T00:43:52;5.05;;;4.00;;
28427;SDS011;15662;49.128;8.520;2023-02-17T00:46:21;5.43;;;3.92;;
28427;SDS011;15662;49.128;8.520;2023-02-17T00:48:51;4.72;;;3.75;;
28427;SDS011;15662;49.128;8.520;2023-02-17T00:51:19;7.50;;;4.10;;
28427;SDS011;15662;49.128;8.520;2023-02-17T00:53:48;5.78;;;4.07;;
28427;SDS011;15662;49.128;8.520;2023-02-17T00:56:16;4.20;;;3.65;;
28427;SDS011;15662;49.128;8.520;2023-02-17T00:58:44;6.22;;;3.78;;
28427;SDS011;15662;49.128;8.520;2023-02-17T01:01:14;7.38;;;3.67;;
28427;SDS011;15662;49.128;8.520;2023-02-17T01:03:42;6.15;;;4.10;;
28427;SDS011;15662;49.128;8.520;2023-02-17T01:06:11;4.90;;;3.92;;
28427;SDS011;15662;49.128;8.520;2023-02-17T01:08:53;5.05;;;3.90;;
28427;SDS011;15662;49.128;8.520;2023-02-17T01:11:23;6.15;;;4.10;;
28427;SDS011;15662;49.128;8.520;2023-02-17T01:13:57;6.97;;;4.22;;
28427;SDS011;15662;49.128;8.520;2023-02-17T01:16:28;5.18;;;3.53;;
28427;SDS011;15662;49.128;8.520;2023-02-17T01:19:02;5.28;;;3.78;;
28427;SDS011;15662;49.128;8.520;2023-02-17T01:21:36;5.75;;;4.10;;
28427;SDS011;15662;49.128;8.520;2023-02-17T01:24:05;4.68;;;4.07;;
28427;SDS011;15662;49.128;8.520;2023-02-17T01:26:35;6.00;;;3.90;;
28427;SDS011;15662;49.128;8.520;2023-02-17T01:29:03;4.10;;;3.70;;
28427;SDS011;15662;49.128;8.520;2023-02-17T01:31:33;4.60;;;3.80;;
28427;SDS011;15662;49.128;8.520;2023-02-17T01:34:02;5.80;;;4.05;;
28427;SDS011;15662;49.128;8.520;2023-02-17T01:36:31;9.50;;;4.28;;
28427;SDS011;15662;49.128;8.520;2023-02-17T01:38:59;5.68;;;3.95;;
28427;SDS011;15662;49.128;8.520;2023-02-17T01:41:27;6.15;;;3.78;;
28427;SDS011;15662;49.128;8.520;2023-02-17T01:44:12;5.78;;;3.80;;
28427;SDS011;15662;49.128;8.520;2023-02-17T01:46:49;7.95;;;3.90;;
28427;SDS011;15662;49.128;8.520;2023-02-17T01:54:44;7.97;;;4.13;;
28427;SDS011;15662;49.128;8.520;2023-02-17T01:57:26;5.85;;;3.90;;
28427;SDS011;15662;49.128;8.520;2023-02-17T01:59:58;7.00;;;3.88;;
28427;SDS011;15662;49.128;8.520;2023-02-17T02:02:26;6.57;;;4.63;;
28427;SDS011;15662;49.128;8.520;2023-02-17T02:04:57;4.85;;;3.80;;
28427;SDS011;15662;49.128;8.520;2023-02-17T02:07:27;7.78;;;4.18;;
28427;SDS011;15662;49.128;8.520;2023-02-17T02:10:01;6.25;;;4.20;;
28427;SDS011;15662;49.128;8.520;2023-02-17T02:12:32;5.47;;;3.65;;
28427;SDS011;15662;49.128;8.520;2023-02-17T02:15:06;7.40;;;4.07;;
28427;SDS011;15662;49.128;8.520;2023-02-17T02:23:55;7.00;;;4.00;;
28427;SDS011;15662;49.128;8.520;2023-02-17T02:29:16;4.97;;;3.43;;
28427;SDS011;15662;49.128;8.520;2023-02-17T02:38:33;4.93;;;3.63;;
28427;SDS011;15662;49.128;8.520;2023-02-17T02:41:41;5.05;;;3.58;;
28427;SDS011;15662;49.128;8.520;2023-02-17T02:44:17;4.80;;;3.28;;
28427;SDS011;15662;49.128;8.520;2023-02-17T02:47:00;6.90;;;3.80;;
28427;SDS011;15662;49.128;8.520;2023-02-17T02:49:53;3.50;;;3.20;;
28427;SDS011;15662;49.128;8.520;2023-02-17T02:58:48;6.60;;;3.40;;
28427;SDS011;15662;49.128;8.520;2023-02-17T03:01:28;7.72;;;3.65;;
28427;SDS011;15662;49.128;8.520;2023-02-17T03:04:30;5.32;;;3.40;;
28427;SDS011;15662;49.128;8.520;2023-02-17T03:09:53;3.85;;;2.70;;
28427;SDS011;15662;49.128;8.520;2023-02-17T03:12:23;4.25;;;3.20;;
28427;SDS011;15662;49.128;8.520;2023-02-17T03:14:54;4.05;;;2.92;;
28427;SDS011;15662;49.128;8.520;2023-02-17T03:17:34;4.28;;;2.78;;
28427;SDS011;15662;49.128;8.520;2023-02-17T03:20:03;7.90;;;3.00;;
28427;SDS011;15662;49.128;8.520;2023-02-17T03:22:32;3.92;;;2.95;;
28427;SDS011;15662;49.128;8.520;2023-02-17T03:25:07;4.03;;;2.90;;
28427;SDS011;15662;49.128;8.520;2023-02-17T03:27:35;6.30;;;3.13;;
28427;SDS011;15662;49.128;8.520;2023-02-17T03:30:03;3.92;;;2.80;;
28427;SDS011;15662;49.128;8.520;2023-02-17T03:32:32;6.05;;;3.30;;
28427;SDS011;15662;49.128;8.520;2023-02-17T03:35:00;4.55;;;2.78;;
28427;SDS011;15662;49.128;8.520;2023-02-17T03:37:29;4.25;;;2.42;;
28427;SDS011;15662;49.128;8.520;2023-02-17T03:39:57;5.70;;;3.10;;
28427;SDS011;15662;49.128;8.520;2023-02-17T03:42:25;4.10;;;2.78;;
28427;SDS011;15662;49.128;8.520;2023-02-17T03:44:52;4.63;;;2.72;;
28427;SDS011;15662;49.128;8.520;2023-02-17T03:47:20;3.88;;;2.85;;
28427;SDS011;15662;49.128;8.520;2023-02-17T03:49:49;4.90;;;2.83;;
28427;SDS011;15662;49.128;8.520;2023-02-17T03:52:18;4.80;;;2.75;;
28427;SDS011;15662;49.128;8.520;2023-02-17T03:54:45;3.15;;;2.83;;
28427;SDS011;15662;49.128;8.520;2023-02-17T03:57:14;4.30;;;2.70;;
28427;SDS011;15662;49.128;8.520;2023-02-17T03:59:41;4.15;;;2.72;;
28427;SDS011;15662;49.128;8.520;2023-02-17T04:02:09;7.43;;;3.08;;
28427;SDS011;15662;49.128;8.520;2023-02-17T04:04:37;4.35;;;3.15;;
28427;SDS011;15662;49.128;8.520;2023-02-17T04:07:05;6.70;;;3.05;;
28427;SDS011;15662;49.128;8.520;2023-02-17T04:09:33;5.22;;;2.85;;
28427;SDS011;15662;49.128;8.520;2023-02-17T04:12:01;4.22;;;2.72;;
28427;SDS011;15662;49.128;8.520;2023-02-17T04:14:29;2.78;;;2.40;;
28427;SDS011;15662;49.128;8.520;2023-02-17T04:16:57;3.38;;;2.50;;
28427;SDS011;15662;49.128;8.520;2023-02-17T04:19:25;3.20;;;2.35;;
28427;SDS011;15662;49.128;8.520;2023-02-17T04:21:52;3.80;;;2.53;;
28427;SDS011;15662;49.128;8.520;2023-02-17T04:24:20;4.70;;;2.80;;
28427;SDS011;15662;49.128;8.520;2023-02-17T04:26:48;6.15;;;2.55;;
28427;SDS011;15662;49.128;8.520;2023-02-17T04:29:16;3.13;;;2.55;;
28427;SDS011;15662;49.128;8.520;2023-02-17T04:31:44;3.33;;;2.58;;
28427;SDS011;15662;49.128;8.520;2023-02-17T04:34:12;4.07;;;2.78;;
28427;SDS011;15662;49.128;8.520;2023-02-17T04:36:39;2.80;;;2.47;;
28427;SDS011;15662;49.128;8.520;2023-02-17T04:39:10;2.53;;;2.13;;
28427;SDS011;15662;49.128;8.520;2023-02-17T04:41:38;3.30;;;2.20;;
28427;SDS011;15662;49.128;8.520;2023-02-17T04:44:06;3.13;;;2.13;;
28427;SDS011;15662;49.128;8.520;2023-02-17T04:46:33;4.55;;;2.60;;
28427;SDS011;15662;49.128;8.520;2023-02-17T04:49:01;3.60;;;2.50;;
28427;SDS011;15662;49.128;8.520;2023-02-17T04:51:29;3.67;;;2.40;;
28427;SDS011;15662;49.128;8.520;2023-02-17T04:53:57;4.25;;;2.47;;
28427;SDS011;15662;49.128;8.520;2023-02-17T04:56:25;4.68;;;2.55;;
28427;SDS011;15662;49.128;8.520;2023-02-17T04:58:53;4.00;;;2.50;;
28427;SDS011;15662;49.128;8.520;2023-02-17T05:01:20;2.60;;;2.40;;
28427;SDS011;15662;49.128;8.520;2023-02-17T05:03:48;3.95;;;2.40;;
28427;SDS011;15662;49.128;8.520;2023-02-17T05:06:22;2.95;;;2.20;;
28427;SDS011;15662;49.128;8.520;2023-02-17T05:08:50;2.85;;;2.30;;
28427;SDS011;15662;49.128;8.520;2023-02-17T05:11:19;2.40;;;2.05;;
28427;SDS011;15662;49.128;8.520;2023-02-17T05:13:47;2.13;;;1.92;;
28427;SDS011;15662;49.128;8.520;2023-02-17T05:16:15;1.73;;;1.63;;
28427;SDS011;15662;49.128;8.520;2023-02-17T05:18:43;2.80;;;1.90;;
28427;SDS011;15662;49.128;8.520;2023-02-17T05:21:11;2.63;;;1.77;;
28427;SDS011;15662;49.128;8.520;2023-02-17T05:23:39;2.22;;;1.80;;
28427;SDS011;15662;49.128;8.520;2023-02-17T05:26:07;3.40;;;2.10;;
28427;SDS011;15662;49.128;8.520;2023-02-17T05:28:35;3.83;;;2.08;;
28427;SDS011;15662;49.128;8.520;2023-02-17T05:31:03;2.30;;;2.10;;
28427;SDS011;15662;49.128;8.520;2023-02-17T05:33:32;3.88;;;2.10;;
28427;SDS011;15662;49.128;8.520;2023-02-17T05:36:01;2.60;;;1.92;;
28427;SDS011;15662;49.128;8.520;2023-02-17T05:38:34;4.50;;;2.15;;
28427;SDS011;15662;49.128;8.520;2023-02-17T05:41:03;2.50;;;2.05;;
28427;SDS011;15662;49.128;8.520;2023-02-17T05:43:31;4.07;;;2.10;;
28427;SDS011;15662;49.128;8.520;2023-02-17T05:46:03;3.55;;;1.73;;
28427;SDS011;15662;49.128;8.520;2023-02-17T05:48:32;2.65;;;1.90;;
28427;SDS011;15662;49.128;8.520;2023-02-17T05:51:00;2.50;;;1.80;;
28427;SDS011;15662;49.128;8.520;2023-02-17T05:53:28;2.28;;;1.88;;
28427;SDS011;15662;49.128;8.520;2023-02-17T05:55:56;3.42;;;1.95;;
28427;SDS011;15662;49.128;8.520;2023-02-17T05:58:24;3.05;;;1.80;;
28427;SDS011;15662;49.128;8.520;2023-02-17T06:00:53;2.30;;;2.10;;
28427;SDS011;15662;49.128;8.520;2023-02-17T06:03:21;2.55;;;2.10;;
28427;SDS011;15662;49.128;8.520;2023-02-17T06:05:49;2.33;;;2.00;;
28427;SDS011;15662;49.128;8.520;2023-02-17T06:08:17;2.30;;;1.80;;
28427;SDS011;15662;49.128;8.520;2023-02-17T06:10:45;1.77;;;1.67;;
28427;SDS011;15662;49.128;8.520;2023-02-17T06:13:13;2.60;;;1.60;;
28427;SDS011;15662;49.128;8.520;2023-02-17T06:15:41;2.10;;;1.90;;
28427;SDS011;15662;49.128;8.520;2023-02-17T06:18:08;3.15;;;1.80;;
28427;SDS011;15662;49.128;8.520;2023-02-17T06:20:36;2.08;;;1.70;;
28427;SDS011;15662;49.128;8.520;2023-02-17T06:23:04;2.85;;;1.88;;
28427;SDS011;15662;49.128;8.520;2023-02-17T06:25:32;1.70;;;1.60;;
28427;SDS011;15662;49.128;8.520;2023-02-17T06:28:00;2.97;;;1.77;;
28427;SDS011;15662;49.128;8.520;2023-02-17T06:30:28;3.45;;;2.20;;
28427;SDS011;15662;49.128;8.520;2023-02-17T06:32:56;2.28;;;1.70;;
28427;SDS011;15662;49.128;8.520;2023-02-17T06:35:25;2.05;;;1.65;;
28427;SDS011;15662;49.128;8.520;2023-02-17T06:37:52;1.85;;;1.67;;
28427;SDS011;15662;49.128;8.520;2023-02-17T06:40:25;1.50;;;1.40;;
28427;SDS011;15662;49.128;8.520;2023-02-17T06:42:54;1.70;;;1.60;;
28427;SDS011;15662;49.128;8.520;2023-02-17T06:45:22;1.92;;;1.52;;
28427;SDS011;15662;49.128;8.520;2023-02-17T06:47:50;4.88;;;2.90;;
28427;SDS011;15662;49.128;8.520;2023-02-17T06:50:18;2.50;;;2.28;;
28427;SDS011;15662;49.128;8.520;2023-02-17T06:52:47;2.67;;;2.15;;
28427;SDS011;15662;49.128;8.520;2023-02-17T06:55:15;2.20;;;1.98;;
28427;SDS011;15662;49.128;8.520;2023-02-17T06:57:46;3.08;;;2.00;;
28427;SDS011;15662;49.128;8.520;2023-02-17T07:00:14;3.13;;;1.70;;
28427;SDS011;15662;49.128;8.520;2023-02-17T07:02:42;1.73;;;1.63;;
28427;SDS011;15662;49.128;8.520;2023-02-17T07:05:10;1.83;;;1.63;;
28427;SDS011;15662;49.128;8.520;2023-02-17T07:07:38;1.92;;;1.60;;
28427;SDS011;15662;49.128;8.520;2023-02-17T07:10:06;3.05;;;1.77;;
28427;SDS011;15662;49.128;8.520;2023-02-17T07:12:34;2.85;;;1.80;;
28427;SDS011;15662;49.128;8.520;2023-02-17T07:15:02;1.73;;;1.55;;
28427;SDS011;15662;49.128;8.520;2023-02-17T07:17:30;2.42;;;1.67;;
28427;SDS011;15662;49.128;8.520;2023-02-17T07:19:59;2.90;;;1.60;;
28427;SDS011;15662;49.128;8.520;2023-02-17T07:22:26;2.25;;;1.58;;
28427;SDS011;15662;49.128;8.520;2023-02-17T07:24:54;1.70;;;1.60;;
28427;SDS011;15662;49.128;8.520;2023-02-17T07:27:22;1.60;;;1.50;;
28427;SDS011;15662;49.128;8.520;2023-02-17T07:29:49;1.58;;;1.48;;
28427;SDS011;15662;49.128;8.520;2023-02-17T07:32:17;1.70;;;1.60;;
28427;SDS011;15662;49.128;8.520;2023-02-17T07:34:45;1.83;;;1.48;;
28427;SDS011;15662;49.128;8.520;2023-02-17T07:37:13;3.67;;;2.05;;
28427;SDS011;15662;49.128;8.520;2023-02-17T07:39:41;4.40;;;2.00;;
28427;SDS011;15662;49.128;8.520;2023-02-17T07:42:09;2.05;;;1.67;;
28427;SDS011;15662;49.128;8.520;2023-02-17T07:44:38;2.35;;;1.85;;
28427;SDS011;15662;49.128;8.520;2023-02-17T07:47:06;2.05;;;1.50;;
28427;SDS011;15662;49.128;8.520;2023-02-17T07:49:34;1.65;;;1.55;;
28427;SDS011;15662;49.128;8.520;2023-02-17T07:52:03;5.25;;;1.85;;
28427;SDS011;15662;49.128;8.520;2023-02-17T07:54:31;2.72;;;1.80;;
28427;SDS011;15662;49.128;8.520;2023-02-17T07:57:01;2.38;;;1.55;;
28427;SDS011;15662;49.128;8.520;2023-02-17T07:59:29;2.20;;;1.92;;
28427;SDS011;15662;49.128;8.520;2023-02-17T08:01:57;1.80;;;1.70;;
28427;SDS011;15662;49.128;8.520;2023-02-17T08:04:25;6.68;;;1.92;;
28427;SDS011;15662;49.128;8.520;2023-02-17T08:06:53;2.13;;;1.92;;
28427;SDS011;15662;49.128;8.520;2023-02-17T08:09:21;2.10;;;1.90;;
28427;SDS011;15662;49.128;8.520;2023-02-17T08:12:15;3.42;;;2.10;;
28427;SDS011;15662;49.128;8.520;2023-02-17T08:15:04;4.38;;;1.90;;
28427;SDS011;15662;49.128;8.520;2023-02-17T08:17:35;3.15;;;1.90;;
28427;SDS011;15662;49.128;8.520;2023-02-17T08:20:03;2.72;;;1.92;;
28427;SDS011;15662;49.128;8.520;2023-02-17T08:22:35;2.97;;;2.28;;
28427;SDS011;15662;49.128;8.520;2023-02-17T08:25:03;2.17;;;1.88;;
28427;SDS011;15662;49.128;8.520;2023-02-17T08:27:32;3.67;;;1.95;;
28427;SDS011;15662;49.128;8.520;2023-02-17T08:30:00;2.92;;;1.88;;
28427;SDS011;15662;49.128;8.520;2023-02-17T08:32:28;2.35;;;1.92;;
28427;SDS011;15662;49.128;8.520;2023-02-17T08:34:56;1.88;;;1.73;;
28427;SDS011;15662;49.128;8.520;2023-02-17T08:37:25;2.28;;;1.92;;
28427;SDS011;15662;49.128;8.520;2023-02-17T08:39:53;3.10;;;1.98;;
28427;SDS011;15662;49.128;8.520;2023-02-17T08:42:21;2.80;;;1.90;;
28427;SDS011;15662;49.128;8.520;2023-02-17T08:44:50;6.70;;;2.40;;
28427;SDS011;15662;49.128;8.520;2023-02-17T08:47:18;2.40;;;2.20;;
28427;SDS011;15662;49.128;8.520;2023-02-17T08:49:46;3.95;;;2.25;;
28427;SDS011;15662;49.128;8.520;2023-02-17T08:52:14;2.38;;;2.17;;
28427;SDS011;15662;49.128;8.520;2023-02-17T08:54:42;2.28;;;1.80;;
28427;SDS011;15662;49.128;8.520;2023-02-17T08:57:33;2.33;;;2.13;;
28427;SDS011;15662;49.128;8.520;2023-02-17T09:00:03;2.35;;;2.17;;
28427;SDS011;15662;49.128;8.520;2023-02-17T09:02:35;3.42;;;2.28;;
28427;SDS011;15662;49.128;8.520;2023-02-17T09:05:04;2.67;;;2.22;;
28427;SDS011;15662;49.128;8.520;2023-02-17T09:07:34;4.88;;;1.90;;
28427;SDS011;15662;49.128;8.520;2023-02-17T09:10:03;2.83;;;1.83;;
28427;SDS011;15662;49.128;8.520;2023-02-17T09:12:38;2.63;;;2.20;;
28427;SDS011;15662;49.128;8.520;2023-02-17T09:15:07;2.95;;;2.00;;
28427;SDS011;15662;49.128;8.520;2023-02-17T09:17:39;2.47;;;1.90;;
28427;SDS011;15662;49.128;8.520;2023-02-17T09:20:08;3.28;;;1.80;;
28427;SDS011;15662;49.128;8.520;2023-02-17T09:22:51;2.60;;;1.88;;
28427;SDS011;15662;49.128;8.520;2023-02-17T09:25:19;3.40;;;1.83;;
28427;SDS011;15662;49.128;8.520;2023-02-17T09:27:47;2.72;;;1.77;;
28427;SDS011;15662;49.128;8.520;2023-02-17T09:30:15;4.13;;;1.67;;
28427;SDS011;15662;49.128;8.520;2023-02-17T09:32:44;1.70;;;1.60;;
28427;SDS011;15662;49.128;8.520;2023-02-17T09:35:12;6.35;;;1.92;;
28427;SDS011;15662;49.128;8.520;2023-02-17T09:37:42;1.83;;;1.73;;
28427;SDS011;15662;49.128;8.520;2023-02-17T09:40:18;2.75;;;1.77;;
28427;SDS011;15662;49.128;8.520;2023-02-17T09:43:14;3.53;;;1.60;;
28427;SDS011;15662;49.128;8.520;2023-02-17T09:45:52;2.78;;;1.80;;
28427;SDS011;15662;49.128;8.520;2023-02-17T09:48:29;2.00;;;1.80;;
28427;SDS011;15662;49.128;8.520;2023-02-17T09:51:00;2.88;;;1.83;;
28427;SDS011;15662;49.128;8.520;2023-02-17T09:53:55;4.72;;;1.92;;
28427;SDS011;15662;49.128;8.520;2023-02-17T09:56:40;2.45;;;2.00;;
28427;SDS011;15662;49.128;8.520;2023-02-17T09:59:17;2.65;;;2.00;;
28427;SDS011;15662;49.128;8.520;2023-02-17T10:01:54;3.92;;;1.90;;
28427;SDS011;15662;49.128;8.520;2023-02-17T10:04:25;2.95;;;2.05;;
28427;SDS011;15662;49.128;8.520;2023-02-17T10:07:06;1.92;;;1.70;;
28427;SDS011;15662;49.128;8.520;2023-02-17T10:09:46;3.75;;;1.98;;
28427;SDS011;15662;49.128;8.520;2023-02-17T10:12:26;1.98;;;1.88;;
28427;SDS011;15662;49.128;8.520;2023-02-17T10:15:06;3.13;;;1.92;;
28427;SDS011;15662;49.128;8.520;2023-02-17T10:20:32;2.08;;;1.88;;
28427;SDS011;15662;49.128;8.520;2023-02-17T10:23:25;1.50;;;1.40;;
28427;SDS011;15662;49.128;8.520;2023-02-17T10:29:03;2.58;;;1.90;;
28427;SDS011;15662;49.128;8.520;2023-02-17T10:31:44;2.22;;;1.70;;
28427;SDS011;15662;49.128;8.520;2023-02-17T10:39:51;1.60;;;1.50;;
28427;SDS011;15662;49.128;8.520;2023-02-17T10:45:04;2.55;;;1.67;;
28427;SDS011;15662;49.128;8.520;2023-02-17T10:47:58;4.53;;;1.80;;
28427;SDS011;15662;49.128;8.520;2023-02-17T10:50:43;3.25;;;1.70;;
28427;SDS011;15662;49.128;8.520;2023-02-17T10:53:13;7.15;;;1.80;;
28427;SDS011;15662;49.128;8.520;2023-02-17T10:58:45;2.60;;;1.90;;
28427;SDS011;15662;49.128;8.520;2023-02-17T11:01:26;1.75;;;1.65;;
28427;SDS011;15662;49.128;8.520;2023-02-17T11:06:52;2.08;;;1.92;;
28427;SDS011;15662;49.128;8.520;2023-02-17T11:09:22;2.38;;;2.10;;
28427;SDS011;15662;49.128;8.520;2023-02-17T11:12:02;2.60;;;2.10;;
28427;SDS011;15662;49.128;8.520;2023-02-17T11:14:50;4.53;;;1.95;;
28427;SDS011;15662;49.128;8.520;2023-02-17T11:23:00;3.15;;;2.47;;
28427;SDS011;15662;49.128;8.520;2023-02-17T11:25:41;2.78;;;2.20;;
28427;SDS011;15662;49.128;8.520;2023-02-17T11:28:21;3.60;;;2.17;;
28427;SDS011;15662;49.128;8.520;2023-02-17T11:30:57;2.50;;;2.30;;
28427;SDS011;15662;49.128;8.520;2023-02-17T11:35:59;3.40;;;2.22;;
28427;SDS011;15662;49.128;8.520;2023-02-17T11:38:47;3.42;;;2.30;;
28427;SDS011;15662;49.128;8.520;2023-02-17T11:41:15;3.38;;;2.30;;
28427;SDS011;15662;49.128;8.520;2023-02-17T11:43:57;3.40;;;2.08;;
28427;SDS011;15662;49.128;8.520;2023-02-17T12:09:13;2.45;;;2.25;;
28427;SDS011;15662;49.128;8.520;2023-02-17T12:34:55;2.25;;;1.92;;
28427;SDS011;15662;49.128;8.520;2023-02-17T12:37:30;2.70;;;1.90;;
28427;SDS011;15662;49.128;8.520;2023-02-17T12:40:05;3.70;;;2.22;;
28427;SDS011;15662;49.128;8.520;2023-02-17T12:43:07;3.95;;;2.05;;
28427;SDS011;15662;49.128;8.520;2023-02-17T12:45:58;2.95;;;2.20;;
28427;SDS011;15662;49.128;8.520;2023-02-17T12:48:35;2.65;;;2.00;;
28427;SDS011;15662;49.128;8.520;2023-02-17T12:54:10;2.58;;;2.28;;
28427;SDS011;15662;49.128;8.520;2023-02-17T12:59:38;2.35;;;2.13;;
28427;SDS011;15662;49.128;8.520;2023-02-17T13:04:53;3.05;;;2.42;;
28427;SDS011;15662;49.128;8.520;2023-02-17T13:10:19;4.30;;;2.40;;
28427;SDS011;15662;49.128;8.520;2023-02-17T13:18:12;2.38;;;1.95;;
28427;SDS011;15662;49.128;8.520;2023-02-17T13:20:54;3.60;;;2.30;;
28427;SDS011;15662;49.128;8.520;2023-02-17T13:23:44;2.50;;;2.35;;
28427;SDS011;15662;49.128;8.520;2023-02-17T13:26:28;2.30;;;2.10;;
28427;SDS011;15662;49.128;8.520;2023-02-17T13:34:30;2.63;;;2.20;;
28427;SDS011;15662;49.128;8.520;2023-02-17T13:39:54;2.40;;;2.08;;
28427;SDS011;15662;49.128;8.520;2023-02-17T13:45:01;2.42;;;2.10;;
28427;SDS011;15662;49.128;8.520;2023-02-17T13:47:45;3.42;;;1.90;;
28427;SDS011;15662;49.128;8.520;2023-02-17T13:52:57;1.63;;;1.52;;
28427;SDS011;15662;49.128;8.520;2023-02-17T13:55:25;3.17;;;2.13;;
28427;SDS011;15662;49.128;8.520;2023-02-17T13:57:54;3.08;;;2.30;;
28427;SDS011;15662;49.128;8.520;2023-02-17T14:00:33;3.83;;;2.70;;
28427;SDS011;15662;49.128;8.520;2023-02-17T14:03:10;2.92;;;2.20;;
28427;SDS011;15662;49.128;8.520;2023-02-17T14:05:56;3.33;;;2.20;;
28427;SDS011;15662;49.128;8.520;2023-02-17T14:11:14;2.50;;;2.13;;
28427;SDS011;15662;49.128;8.520;2023-02-17T14:13:47;2.40;;;2.20;;
28427;SDS011;15662;49.128;8.520;2023-02-17T14:16:34;2.75;;;2.25;;
28427;SDS011;15662;49.128;8.520;2023-02-17T14:19:15;3.35;;;2.67;;
28427;SDS011;15662;49.128;8.520;2023-02-17T14:24:31;2.60;;;2.13;;
28427;SDS011;15662;49.128;8.520;2023-02-17T14:27:08;7.82;;;2.72;;
28427;SDS011;15662;49.128;8.520;2023-02-17T14:29:41;5.45;;;2.35;;
28427;SDS011;15662;49.128;8.520;2023-02-17T14:37:40;3.05;;;2.30;;
28427;SDS011;15662;49.128;8.520;2023-02-17T14:40:19;3.25;;;2.63;;
28427;SDS011;15662;49.128;8.520;2023-02-17T14:42:50;4.77;;;2.50;;
28427;SDS011;15662;49.128;8.520;2023-02-17T14:45:18;3.60;;;2.70;;
28427;SDS011;15662;49.128;8.520;2023-02-17T14:47:46;2.75;;;2.50;;
28427;SDS011;15662;49.128;8.520;2023-02-17T14:50:14;4.30;;;2.67;;
28427;SDS011;15662;49.128;8.520;2023-02-17T14:52:46;2.33;;;2.13;;
28427;SDS011;15662;49.128;8.520;2023-02-17T14:55:35;2.53;;;2.30;;
28427;SDS011;15662;49.128;8.520;2023-02-17T14:58:17;2.90;;;2.55;;
28427;SDS011;15662;49.128;8.520;2023-02-17T15:00:52;3.83;;;2.65;;
28427;SDS011;15662;49.128;8.520;2023-02-17T15:03:20;2.72;;;2.53;;
28427;SDS011;15662;49.128;8.520;2023-02-17T15:05:49;2.03;;;1.92;;
28427;SDS011;15662;49.128;8.520;2023-02-17T15:08:17;2.53;;;1.90;;
28427;SDS011;15662;49.128;8.520;2023-02-17T15:10:59;2.67;;;1.65;;
28427;SDS011;15662;49.128;8.520;2023-02-17T15:13:28;2.83;;;1.83;;
28427;SDS011;15662;49.128;8.520;2023-02-17T15:15:58;1.63;;;1.52;;
28427;SDS011;15662;49.128;8.520;2023-02-17T15:18:26;1.70;;;1.60;;
28427;SDS011;15662;49.128;8.520;2023-02-17T15:20:54;1.63;;;1.52;;
28427;SDS011;15662;49.128;8.520;2023-02-17T15:23:23;1.90;;;1.80;;
28427;SDS011;15662;49.128;8.520;2023-02-17T15:25:54;2.50;;;1.80;;
28427;SDS011;15662;49.128;8.520;2023-02-17T15:28:22;2.10;;;1.80;;
28427;SDS011;15662;49.128;8.520;2023-02-17T15:30:51;2.88;;;1.65;;
28427;SDS011;15662;49.128;8.520;2023-02-17T15:35:51;1.63;;;1.52;;
28427;SDS011;15662;49.128;8.520;2023-02-17T15:38:20;1.60;;;1.50;;
28427;SDS011;15662;49.128;8.520;2023-02-17T15:40:49;1.48;;;1.38;;
28427;SDS011;15662;49.128;8.520;2023-02-17T15:43:18;2.33;;;1.50;;
28427;SDS011;15662;49.128;8.520;2023-02-17T15:45:48;1.70;;;1.60;;
28427;SDS011;15662;49.128;8.520;2023-02-17T15:50:52;1.67;;;1.55;;
28427;SDS011;15662;49.128;8.520;2023-02-17T15:53:20;1.38;;;1.27;;
28427;SDS011;15662;49.128;8.520;2023-02-17T15:55:48;1.13;;;1.10;;
28427;SDS011;15662;49.128;8.520;2023-02-17T15:58:18;1.48;;;1.30;;
28427;SDS011;15662;49.128;8.520;2023-02-17T16:00:48;4.13;;;1.60;;
28427;SDS011;15662;49.128;8.520;2023-02-17T16:03:17;2.35;;;1.33;;
28427;SDS011;15662;49.128;8.520;2023-02-17T16:05:45;1.58;;;1.17;;
28427;SDS011;15662;49.128;8.520;2023-02-17T16:08:13;1.65;;;1.55;;
28427;SDS011;15662;49.128;8.520;2023-02-17T16:10:41;2.00;;;1.80;;
28427;SDS011;15662;49.128;8.520;2023-02-17T16:13:12;2.00;;;1.80;;
28427;SDS011;15662;49.128;8.520;2023-02-17T16:15:42;2.10;;;1.73;;
28427;SDS011;15662;49.128;8.520;2023-02-17T16:18:19;1.65;;;1.55;;
28427;SDS011;15662;49.128;8.520;2023-02-17T16:20:49;1.50;;;1.40;;
28427;SDS011;15662;49.128;8.520;2023-02-17T16:23:18;2.22;;;1.70;;
28427;SDS011;15662;49.128;8.520;2023-02-17T16:25:46;1.83;;;1.60;;
28427;SDS011;15662;49.128;8.520;2023-02-17T16:28:17;2.08;;;1.90;;
28427;SDS011;15662;49.128;8.520;2023-02-17T16:30:47;1.92;;;1.75;;
28427;SDS011;15662;49.128;8.520;2023-02-17T16:33:16;2.00;;;1.90;;
28427;SDS011;15662;49.128;8.520;2023-02-17T16:35:45;2.30;;;1.50;;
28427;SDS011;15662;49.128;8.520;2023-02-17T16:38:17;2.22;;;2.00;;
28427;SDS011;15662;49.128;8.520;2023-02-17T16:40:50;2.30;;;1.65;;
28427;SDS011;15662;49.128;8.520;2023-02-17T16:43:20;1.95;;;1.85;;
28427;SDS011;15662;49.128;8.520;2023-02-17T16:45:57;2.28;;;1.83;;
28427;SDS011;15662;49.128;8.520;2023-02-17T16:48:29;1.65;;;1.55;;
28427;SDS011;15662;49.128;8.520;2023-02-17T16:51:00;2.47;;;1.77;;
28427;SDS011;15662;49.128;8.520;2023-02-17T16:53:28;1.73;;;1.60;;
28427;SDS011;15662;49.128;8.520;2023-02-17T16:55:56;1.83;;;1.73;;
28427;SDS011;15662;49.128;8.520;2023-02-17T16:58:24;1.95;;;1.50;;
28427;SDS011;15662;49.128;8.520;2023-02-17T17:00:53;1.98;;;1.52;;
28427;SDS011;15662;49.128;8.520;2023-02-17T17:03:21;2.75;;;1.70;;
28427;SDS011;15662;49.128;8.520;2023-02-17T17:05:50;2.20;;;1.60;;
28427;SDS011;15662;49.128;8.520;2023-02-17T17:08:18;2.13;;;1.92;;
28427;SDS011;15662;49.128;8.520;2023-02-17T17:10:48;2.17;;;1.70;;
28427;SDS011;15662;49.128;8.520;2023-02-17T17:13:16;2.13;;;1.88;;
28427;SDS011;15662;49.128;8.520;2023-02-17T17:15:44;2.03;;;1.90;;
28427;SDS011;15662;49.128;8.520;2023-02-17T17:18:16;1.70;;;1.60;;
28427;SDS011;15662;49.128;8.520;2023-02-17T17:20:47;1.75;;;1.65;;
28427;SDS011;15662;49.128;8.520;2023-02-17T17:23:16;3.83;;;1.92;;
28427;SDS011;15662;49.128;8.520;2023-02-17T17:25:45;1.92;;;1.75;;
28427;SDS011;15662;49.128;8.520;2023-02-17T17:28:15;2.28;;;1.90;;
28427;SDS011;15662;49.128;8.520;2023-02-17T17:30:45;2.30;;;2.10;;
28427;SDS011;15662;49.128;8.520;2023-02-17T17:33:14;5.03;;;1.83;;
28427;SDS011;15662;49.128;8.520;2023-02-17T17:35:42;2.47;;;1.90;;
28427;SDS011;15662;49.128;8.520;2023-02-17T17:38:13;2.28;;;2.17;;
28427;SDS011;15662;49.128;8.520;2023-02-17T17:40:50;3.13;;;2.38;;
28427;SDS011;15662;49.128;8.520;2023-02-17T17:43:20;2.50;;;2.00;;
28427;SDS011;15662;49.128;8.520;2023-02-17T17:45:49;2.47;;;2.28;;
28427;SDS011;15662;49.128;8.520;2023-02-17T17:48:18;2.20;;;2.08;;